Time;durP1;ratioP1;P1;durP2;ratioP2;P2;SDS_P1;SDS_P2;PMS_P1;PMS_P2;Temp;Humidity;BMP_temperature;BMP_pressure;BME280_temperature;BME280_humidity;BME280_pressure;Samples;Min_cycle;Max_cycle;Signal;HPM_P1;HPM_P2
2021/03/10 00:01:08;;;;;;;8.52;7.68;;;4.90;99.90;;;;;;4916855;29;20189;-81
2021/03/10 00:03:34;;;;;;;8.98;7.55;;;4.80;99.90;;;;;;4917394;29;20185;-84
2021/03/10 00:06:01;;;;;;;8.45;7.32;;;4.80;99.90;;;;;;4935322;28;20240;-83
2021/03/10 00:08:28;;;;;;;8.23;7.20;;;4.80;99.90;;;;;;4918737;29;20205;-83
2021/03/10 00:10:54;;;;;;;12.63;9.50;;;4.80;99.90;;;;;;4935299;29;20197;-83
2021/03/10 00:13:21;;;;;;;8.18;7.38;;;4.90;99.90;;;;;;4902305;29;20229;-82
2021/03/10 00:15:47;;;;;;;11.07;8.95;;;4.80;99.90;;;;;;4934660;29;20220;-84
2021/03/10 00:18:14;;;;;;;10.55;9.40;;;4.80;99.90;;;;;;4935337;29;20229;-81
2021/03/10 00:20:40;;;;;;;11.27;9.05;;;4.90;99.90;;;;;;4929847;29;20261;-82
2021/03/10 00:23:07;;;;;;;9.02;8.13;;;4.90;99.90;;;;;;4916418;29;20249;-84
2021/03/10 00:25:33;;;;;;;9.60;8.55;;;4.90;99.90;;;;;;4934031;29;20751;-82
2021/03/10 00:28:00;;;;;;;11.48;9.13;;;4.90;99.90;;;;;;4933875;28;20256;-80
2021/03/10 00:30:27;;;;;;;10.50;9.02;;;5.00;99.90;;;;;;4934859;29;20220;-82
2021/03/10 00:32:53;;;;;;;11.23;9.88;;;4.90;99.90;;;;;;4916186;29;20236;-83
2021/03/10 00:35:27;;;;;;;11.68;9.45;;;5.00;99.90;;;;;;4934184;29;20223;-85
2021/03/10 00:37:58;;;;;;;12.65;10.30;;;4.90;99.90;;;;;;4933511;29;20224;-82
2021/03/10 00:40:25;;;;;;;11.60;10.20;;;4.90;99.90;;;;;;4900458;29;20655;-82
2021/03/10 00:42:51;;;;;;;10.02;9.10;;;4.90;99.90;;;;;;4933355;29;20303;-82
2021/03/10 00:45:18;;;;;;;10.10;9.05;;;4.90;99.90;;;;;;4917939;29;20259;-85
2021/03/10 00:47:44;;;;;;;14.10;10.75;;;4.90;99.90;;;;;;4933878;29;20227;-81
2021/03/10 00:50:21;;;;;;;13.93;11.07;;;4.90;99.90;;;;;;4935365;29;20733;-83
2021/03/10 00:52:48;;;;;;;13.07;11.05;;;4.90;99.90;;;;;;4901446;29;20228;-82
2021/03/10 00:55:15;;;;;;;10.95;9.32;;;4.90;99.90;;;;;;4915337;29;20213;-85
2021/03/10 00:57:42;;;;;;;13.43;11.27;;;4.80;99.90;;;;;;4931670;29;20259;-84
2021/03/10 01:00:10;;;;;;;14.68;11.07;;;4.80;99.90;;;;;;4934350;29;20567;-81
2021/03/10 01:02:36;;;;;;;14.20;10.73;;;4.80;99.90;;;;;;4915784;29;20256;-84
2021/03/10 01:05:05;;;;;;;13.60;12.00;;;4.80;99.90;;;;;;4899929;29;20213;-83
2021/03/10 01:07:31;;;;;;;12.20;11.10;;;4.70;99.90;;;;;;4915975;29;20280;-82
2021/03/10 01:09:58;;;;;;;13.27;10.95;;;4.70;99.90;;;;;;4916277;29;20253;-85
2021/03/10 01:12:24;;;;;;;13.52;10.80;;;4.60;99.90;;;;;;4908169;29;20803;-82
2021/03/10 01:14:51;;;;;;;12.75;10.45;;;4.50;99.90;;;;;;4917786;29;20317;-84
2021/03/10 01:17:20;;;;;;;13.38;10.65;;;4.50;99.90;;;;;;4909703;29;20256;-81
2021/03/10 01:19:47;;;;;;;17.35;12.38;;;4.40;99.90;;;;;;4921749;29;20196;-81
2021/03/10 01:22:14;;;;;;;14.55;11.43;;;4.40;99.90;;;;;;4927397;28;20575;-85
2021/03/10 01:24:42;;;;;;;17.52;13.95;;;4.40;99.90;;;;;;4915998;29;20205;-82
2021/03/10 01:27:09;;;;;;;19.35;13.30;;;4.40;99.90;;;;;;4927062;28;20298;-86
2021/03/10 01:29:36;;;;;;;17.85;13.68;;;4.50;99.90;;;;;;4934719;29;20184;-83
2021/03/10 01:32:02;;;;;;;16.83;13.55;;;4.60;99.90;;;;;;4934157;29;20208;-88
2021/03/10 01:34:29;;;;;;;17.17;14.70;;;4.60;99.90;;;;;;4934776;29;20690;-84
2021/03/10 01:36:55;;;;;;;18.00;13.85;;;4.70;99.90;;;;;;4900814;29;20707;-83
2021/03/10 01:39:22;;;;;;;18.65;15.35;;;4.70;99.90;;;;;;4917450;29;20236;-87
2021/03/10 01:41:48;;;;;;;21.30;16.08;;;4.70;99.90;;;;;;4898516;29;20636;-84
2021/03/10 01:44:15;;;;;;;21.23;15.40;;;4.80;99.90;;;;;;4930315;29;20675;-87
2021/03/10 01:46:42;;;;;;;21.85;15.80;;;4.90;99.90;;;;;;4917308;29;20749;-83
2021/03/10 01:49:10;;;;;;;17.98;15.23;;;4.80;99.90;;;;;;4923398;29;20196;-84
2021/03/10 01:51:36;;;;;;;21.75;16.02;;;4.90;99.90;;;;;;4934236;28;20232;-83
2021/03/10 01:54:03;;;;;;;18.95;15.00;;;4.90;99.90;;;;;;4933921;29;20556;-85
2021/03/10 01:56:29;;;;;;;19.20;15.15;;;4.90;99.90;;;;;;4933423;29;20232;-85
2021/03/10 01:58:56;;;;;;;21.05;14.45;;;4.90;99.90;;;;;;4914299;29;20557;-83
2021/03/10 02:01:23;;;;;;;23.58;17.15;;;4.80;99.90;;;;;;4918863;29;20221;-81
2021/03/10 02:03:49;;;;;;;20.13;15.88;;;4.80;99.90;;;;;;4905327;29;20420;-84
2021/03/10 02:07:01;;;;;;;19.10;16.23;;;4.90;99.90;;;;;;4922918;29;20294;-84
2021/03/10 02:10:01;;;;;;;21.25;16.50;;;4.90;99.90;;;;;;4919546;29;20197;-84
2021/03/10 02:12:49;;;;;;;22.17;17.17;;;4.90;99.90;;;;;;4926838;29;20217;-83
2021/03/10 02:15:37;;;;;;;23.70;17.60;;;5.00;99.90;;;;;;4919350;29;20300;-85
2021/03/10 02:18:09;;;;;;;24.20;17.80;;;4.90;99.90;;;;;;4918521;29;20229;-84
2021/03/10 02:20:42;;;;;;;21.75;16.98;;;4.90;99.90;;;;;;4904834;29;20668;-83
2021/03/10 02:23:42;;;;;;;22.15;16.30;;;4.80;99.90;;;;;;4942550;28;20233;-85
2021/03/10 02:26:28;;;;;;;20.55;16.65;;;4.80;99.90;;;;;;4917425;29;20268;-84
2021/03/10 02:29:01;;;;;;;21.50;17.25;;;4.70;99.90;;;;;;4918970;29;20272;-82
2021/03/10 02:31:29;;;;;;;24.45;17.55;;;4.70;99.90;;;;;;4901704;29;20699;-87
2021/03/10 02:33:59;;;;;;;24.05;18.10;;;4.70;99.90;;;;;;4919056;29;20301;-82
2021/03/10 02:36:28;;;;;;;22.48;17.50;;;4.70;99.90;;;;;;4927720;28;20269;-85
2021/03/10 02:38:56;;;;;;;22.48;17.35;;;4.70;99.90;;;;;;4937233;29;20204;-83
2021/03/10 02:41:23;;;;;;;25.92;18.83;;;4.70;99.90;;;;;;4936595;28;20224;-84
2021/03/10 02:43:52;;;;;;;21.30;16.98;;;4.70;99.90;;;;;;4937026;29;20252;-82
2021/03/10 02:46:19;;;;;;;25.45;17.48;;;4.70;99.90;;;;;;4937115;29;20248;-86
2021/03/10 02:48:48;;;;;;;21.55;17.45;;;4.70;99.90;;;;;;4904789;29;20185;-83
2021/03/10 02:51:16;;;;;;;25.17;18.65;;;4.70;99.90;;;;;;4937857;29;20188;-84
2021/03/10 02:53:43;;;;;;;23.55;17.60;;;4.70;99.90;;;;;;4936811;29;20189;-84
2021/03/10 02:56:11;;;;;;;22.85;17.00;;;4.70;99.90;;;;;;4936150;29;20239;-86
2021/03/10 02:58:40;;;;;;;26.45;18.83;;;4.70;99.90;;;;;;4905725;29;20574;-79
2021/03/10 03:01:11;;;;;;;22.73;17.42;;;4.70;99.90;;;;;;4917333;29;20263;-81
2021/03/10 03:03:38;;;;;;;22.73;17.35;;;4.70;99.90;;;;;;4918800;29;20227;-83
2021/03/10 03:06:05;;;;;;;27.15;18.38;;;4.70;99.90;;;;;;4936421;29;20244;-85
2021/03/10 03:08:32;;;;;;;23.58;17.40;;;4.80;99.90;;;;;;4916641;29;20726;-84
2021/03/10 03:10:59;;;;;;;26.17;19.65;;;4.80;99.90;;;;;;4934070;29;20205;-82
2021/03/10 03:13:28;;;;;;;25.73;18.40;;;4.70;99.90;;;;;;4921347;29;20294;-83
2021/03/10 03:15:57;;;;;;;23.92;19.90;;;4.70;99.90;;;;;;4918375;29;20701;-85
2021/03/10 03:18:25;;;;;;;24.63;18.90;;;4.70;99.90;;;;;;4932658;29;20308;-83
2021/03/10 03:20:52;;;;;;;20.95;17.10;;;4.60;99.90;;;;;;4936647;29;20255;-82
2021/03/10 03:23:21;;;;;;;23.70;18.55;;;4.60;99.90;;;;;;4922255;28;20255;-82
2021/03/10 03:25:49;;;;;;;26.80;19.20;;;4.60;99.90;;;;;;4901939;29;20284;-86
2021/03/10 03:28:19;;;;;;;32.40;20.90;;;4.70;99.90;;;;;;4926535;29;20229;-84
2021/03/10 03:30:48;;;;;;;26.98;19.45;;;4.70;99.90;;;;;;4917879;29;20651;-84
2021/03/10 03:33:17;;;;;;;26.60;19.00;;;4.60;99.90;;;;;;4918538;29;20245;-82
2021/03/10 03:35:51;;;;;;;28.00;20.00;;;4.60;99.90;;;;;;4906830;29;20604;-84
2021/03/10 03:38:21;;;;;;;29.35;19.15;;;4.60;99.90;;;;;;4934775;28;20217;-86
2021/03/10 03:40:49;;;;;;;25.20;18.58;;;4.60;99.90;;;;;;4935148;29;20595;-84
2021/03/10 03:45:51;;;;;;;28.05;19.40;;;4.40;99.90;;;;;;4934315;29;20224;-76
2021/03/10 03:48:21;;;;;;;26.45;17.17;;;4.40;99.90;;;;;;4933982;29;20307;-77
2021/03/10 03:50:48;;;;;;;30.88;19.73;;;4.30;99.90;;;;;;4919883;29;20195;-77
2021/03/10 03:53:14;;;;;;;26.67;20.20;;;4.40;99.90;;;;;;4933713;29;20244;-77
2021/03/10 03:55:42;;;;;;;26.23;18.85;;;4.30;99.90;;;;;;4935239;29;20296;-76
2021/03/10 03:58:09;;;;;;;27.02;20.60;;;4.30;99.90;;;;;;4935663;29;20217;-75
2021/03/10 04:00:35;;;;;;;32.10;20.20;;;4.30;99.90;;;;;;4936260;29;20272;-76
2021/03/10 04:03:02;;;;;;;29.33;19.83;;;4.30;99.90;;;;;;4935214;29;20216;-76
2021/03/10 04:05:29;;;;;;;24.88;19.08;;;4.30;99.90;;;;;;4934847;29;20212;-75
2021/03/10 04:08:07;;;;;;;27.88;19.77;;;4.30;99.90;;;;;;4918279;29;20266;-75
2021/03/10 04:10:36;;;;;;;28.90;19.63;;;4.40;99.90;;;;;;4918641;29;20192;-75
2021/03/10 04:13:03;;;;;;;26.30;19.55;;;4.40;99.90;;;;;;4935137;28;20220;-75
2021/03/10 04:15:31;;;;;;;32.90;20.50;;;4.40;99.90;;;;;;4918721;29;20204;-75
2021/03/10 04:17:59;;;;;;;28.75;19.52;;;4.40;99.90;;;;;;4934914;29;20227;-75
2021/03/10 04:20:26;;;;;;;28.45;21.20;;;4.40;99.90;;;;;;4935253;29;20663;-76
2021/03/10 04:22:52;;;;;;;35.22;22.30;;;4.40;99.90;;;;;;4934392;29;20217;-76
2021/03/10 04:25:19;;;;;;;50.00;26.05;;;4.40;99.90;;;;;;4935896;29;20615;-77
2021/03/10 04:27:45;;;;;;;48.08;25.92;;;4.40;99.90;;;;;;4918221;29;20311;-76
2021/03/10 04:30:13;;;;;;;49.00;28.70;;;4.40;99.90;;;;;;4918886;29;20283;-75
2021/03/10 04:32:40;;;;;;;47.60;27.42;;;4.40;99.90;;;;;;4934797;29;20224;-77
2021/03/10 04:35:08;;;;;;;34.58;24.95;;;4.40;99.90;;;;;;4933922;29;20653;-76
2021/03/10 04:37:34;;;;;;;43.20;22.95;;;4.40;99.90;;;;;;4934967;29;20221;-75
2021/03/10 04:40:02;;;;;;;35.38;21.92;;;4.50;99.90;;;;;;4935774;29;20517;-75
2021/03/10 04:42:28;;;;;;;30.85;20.70;;;4.50;99.90;;;;;;4934102;29;20218;-76
2021/03/10 04:44:55;;;;;;;30.52;21.17;;;4.60;99.90;;;;;;4918171;29;20220;-75
2021/03/10 04:47:21;;;;;;;29.98;18.85;;;4.60;99.90;;;;;;4914748;29;20217;-77
2021/03/10 04:49:48;;;;;;;25.27;17.60;;;4.60;99.90;;;;;;4914928;29;20233;-76
2021/03/10 04:52:19;;;;;;;23.88;18.20;;;4.60;99.90;;;;;;4932902;29;20239;-77
2021/03/10 04:54:46;;;;;;;27.40;18.25;;;4.50;99.90;;;;;;4935089;29;20204;-75
2021/03/10 04:57:15;;;;;;;26.50;18.67;;;4.50;99.90;;;;;;4912587;29;20587;-76
2021/03/10 04:59:41;;;;;;;25.88;18.42;;;4.50;99.90;;;;;;4917965;29;20220;-76
2021/03/10 05:02:08;;;;;;;32.85;20.25;;;4.50;99.90;;;;;;4934544;29;20220;-76
2021/03/10 05:04:35;;;;;;;26.80;18.08;;;4.50;99.90;;;;;;4934397;29;20210;-76
2021/03/10 05:07:03;;;;;;;27.35;19.42;;;4.40;99.90;;;;;;4934364;29;20698;-74
2021/03/10 05:09:29;;;;;;;28.25;19.35;;;4.40;99.90;;;;;;4935047;29;20220;-75
2021/03/10 05:11:55;;;;;;;27.92;18.98;;;4.60;99.90;;;;;;4913190;29;20228;-76
2021/03/10 05:14:22;;;;;;;27.23;18.20;;;4.60;99.90;;;;;;4918049;29;20578;-77
2021/03/10 05:16:48;;;;;;;24.75;17.80;;;4.50;99.90;;;;;;4934187;29;20216;-76
2021/03/10 05:19:15;;;;;;;26.23;17.88;;;4.50;99.90;;;;;;4933488;29;20216;-75
2021/03/10 05:21:42;;;;;;;27.23;19.67;;;4.40;99.90;;;;;;4917218;29;20216;-76
2021/03/10 05:24:09;;;;;;;21.42;16.58;;;4.40;99.90;;;;;;4933603;29;20208;-76
2021/03/10 05:26:39;;;;;;;30.63;21.52;;;4.40;99.90;;;;;;4912574;29;20216;-75
2021/03/10 05:29:06;;;;;;;27.40;20.33;;;4.40;99.90;;;;;;4917552;29;20177;-75
2021/03/10 05:31:33;;;;;;;30.45;20.60;;;4.40;99.90;;;;;;4934706;29;20303;-77
2021/03/10 05:34:00;;;;;;;23.83;18.45;;;4.40;99.90;;;;;;4934845;29;20694;-76
2021/03/10 05:36:26;;;;;;;25.38;17.25;;;4.50;99.90;;;;;;4933331;29;20224;-76
2021/03/10 05:39:13;;;;;;;23.52;17.70;;;4.40;99.90;;;;;;4920277;29;20709;-76
2021/03/10 05:41:40;;;;;;;27.90;19.73;;;4.40;99.90;;;;;;4933354;29;20236;-76
2021/03/10 05:44:07;;;;;;;24.48;18.33;;;4.40;99.90;;;;;;4934740;29;20219;-75
2021/03/10 05:46:34;;;;;;;27.17;17.58;;;4.40;99.90;;;;;;4929712;29;20224;-75
2021/03/10 05:49:02;;;;;;;28.42;17.90;;;4.40;99.90;;;;;;4934281;29;20665;-76
2021/03/10 05:51:29;;;;;;;22.27;15.77;;;4.40;99.90;;;;;;4898215;29;20599;-75
2021/03/10 05:53:57;;;;;;;26.92;18.52;;;4.50;99.90;;;;;;4918205;29;20216;-76
2021/03/10 05:56:25;;;;;;;28.60;18.92;;;4.50;99.90;;;;;;4910264;29;20216;-77
2021/03/10 05:59:02;;;;;;;24.52;17.30;;;4.40;99.90;;;;;;4915339;29;20268;-76
2021/03/10 06:01:29;;;;;;;31.70;19.40;;;4.50;99.90;;;;;;4934011;29;20224;-77
2021/03/10 06:04:00;;;;;;;33.80;18.10;;;4.60;99.90;;;;;;4934425;29;20204;-76
2021/03/10 06:06:35;;;;;;;27.60;17.75;;;4.50;99.90;;;;;;4932860;29;20694;-76
2021/03/10 06:09:13;;;;;;;24.25;17.52;;;4.50;99.90;;;;;;4933066;29;20187;-75
2021/03/10 06:11:56;;;;;;;27.98;18.77;;;4.60;99.90;;;;;;4923028;29;20251;-76
2021/03/10 06:14:23;;;;;;;29.65;18.95;;;4.60;99.90;;;;;;4934235;29;20213;-76
2021/03/10 06:17:08;;;;;;;23.80;18.45;;;4.70;99.90;;;;;;4932286;29;20320;-77
2021/03/10 06:19:47;;;;;;;31.75;19.20;;;4.70;99.90;;;;;;4932823;29;20215;-75
2021/03/10 06:22:16;;;;;;;28.17;18.92;;;4.60;99.90;;;;;;4898098;29;20231;-76
2021/03/10 06:24:42;;;;;;;36.53;21.02;;;4.60;99.90;;;;;;4918056;29;20239;-76
2021/03/10 06:27:09;;;;;;;33.63;21.08;;;4.50;99.90;;;;;;4912785;29;20235;-77
2021/03/10 06:29:36;;;;;;;32.08;21.23;;;4.50;99.90;;;;;;4932898;29;20192;-75
2021/03/10 06:32:05;;;;;;;30.13;20.25;;;4.50;99.90;;;;;;4933543;29;20308;-75
2021/03/10 06:34:50;;;;;;;30.55;19.05;;;4.60;99.90;;;;;;4932970;29;20220;-76
2021/03/10 06:37:29;;;;;;;32.65;20.52;;;4.60;99.90;;;;;;4914969;29;20225;-75
2021/03/10 06:40:10;;;;;;;35.30;20.73;;;4.80;99.90;;;;;;4923990;29;20239;-75
2021/03/10 06:42:37;;;;;;;34.13;18.75;;;4.80;99.90;;;;;;4931725;29;20248;-76
2021/03/10 06:45:04;;;;;;;34.45;23.10;;;4.80;99.90;;;;;;4934350;29;20244;-76
2021/03/10 06:47:49;;;;;;;31.75;21.58;;;4.80;99.90;;;;;;4916504;29;20315;-76
2021/03/10 06:50:15;;;;;;;34.80;21.77;;;4.80;99.90;;;;;;4930156;29;20590;-76
2021/03/10 06:52:51;;;;;;;37.83;22.75;;;4.80;99.90;;;;;;4937146;29;20228;-76
2021/03/10 06:55:18;;;;;;;35.60;22.80;;;4.70;99.90;;;;;;4937044;29;20244;-76
2021/03/10 06:57:44;;;;;;;33.45;21.65;;;4.70;99.90;;;;;;4887085;29;20319;-75
2021/03/10 07:00:23;;;;;;;31.95;20.20;;;4.70;99.90;;;;;;4929605;29;20236;-76
2021/03/10 07:02:50;;;;;;;35.67;21.65;;;4.80;99.90;;;;;;4936643;29;20602;-76
2021/03/10 07:05:17;;;;;;;36.45;24.98;;;4.80;99.90;;;;;;4919283;29;20907;-75
2021/03/10 07:07:46;;;;;;;35.92;21.98;;;4.80;99.90;;;;;;4935473;29;20228;-75
2021/03/10 07:10:20;;;;;;;38.80;21.98;;;4.80;99.90;;;;;;4936998;29;20187;-76
2021/03/10 07:12:47;;;;;;;36.20;23.45;;;4.80;99.90;;;;;;4918827;29;20228;-75
2021/03/10 07:15:15;;;;;;;35.55;23.90;;;4.80;99.90;;;;;;4916862;29;20217;-76
2021/03/10 07:17:46;;;;;;;31.95;21.58;;;4.80;99.90;;;;;;4918127;29;20229;-75
2021/03/10 07:20:13;;;;;;;45.80;25.95;;;4.90;99.90;;;;;;4910438;29;20193;-76
2021/03/10 07:22:55;;;;;;;34.78;24.83;;;4.90;99.90;;;;;;4917794;29;20240;-76
2021/03/10 07:25:29;;;;;;;38.97;26.17;;;5.00;99.90;;;;;;4934022;29;20208;-75
2021/03/10 07:28:18;;;;;;;44.55;26.65;;;5.00;99.90;;;;;;4918192;29;20243;-76
2021/03/10 07:30:47;;;;;;;42.60;27.70;;;5.10;99.90;;;;;;4916631;29;20200;-76
2021/03/10 07:33:22;;;;;;;41.33;28.40;;;5.20;99.90;;;;;;4915983;29;20248;-76
2021/03/10 07:36:00;;;;;;;47.67;28.48;;;5.20;99.90;;;;;;4933203;29;20220;-76
2021/03/10 07:38:36;;;;;;;53.45;32.25;;;5.20;99.90;;;;;;4934859;29;20273;-76
2021/03/10 07:41:08;;;;;;;44.58;29.58;;;5.30;99.90;;;;;;4918591;29;20188;-75
2021/03/10 07:43:36;;;;;;;50.30;31.48;;;5.30;99.90;;;;;;4919479;29;20207;-75
2021/03/10 07:46:03;;;;;;;47.58;30.20;;;5.40;99.90;;;;;;4918882;29;20599;-76
2021/03/10 07:48:34;;;;;;;47.65;30.75;;;5.50;99.90;;;;;;4919375;29;20185;-75
2021/03/10 07:51:02;;;;;;;43.00;29.15;;;5.50;99.90;;;;;;4933767;29;20284;-76
2021/03/10 07:53:38;;;;;;;46.25;30.33;;;5.50;99.90;;;;;;4919573;29;20189;-77
2021/03/10 07:56:08;;;;;;;43.65;28.13;;;5.40;99.90;;;;;;4916901;29;20203;-76
2021/03/10 07:58:34;;;;;;;42.47;27.15;;;5.50;99.90;;;;;;4918848;29;20220;-75
2021/03/10 08:01:01;;;;;;;36.83;25.88;;;5.50;99.90;;;;;;4935818;29;20248;-74
2021/03/10 08:03:33;;;;;;;40.38;27.42;;;5.60;99.90;;;;;;4936419;29;20173;-76
2021/03/10 08:06:06;;;;;;;36.72;25.20;;;5.60;99.90;;;;;;4916569;29;20197;-75
2021/03/10 08:08:38;;;;;;;39.85;24.38;;;5.80;99.90;;;;;;4918705;29;20271;-75
2021/03/10 08:11:13;;;;;;;35.35;21.90;;;5.80;99.90;;;;;;4931734;29;20594;-75
2021/03/10 08:13:40;;;;;;;34.38;23.85;;;5.90;99.90;;;;;;4918947;29;20200;-76
2021/03/10 08:16:09;;;;;;;31.55;21.45;;;5.90;99.90;;;;;;4935257;29;20184;-76
2021/03/10 08:18:36;;;;;;;28.60;20.13;;;6.10;99.90;;;;;;4935335;29;20268;-76
2021/03/10 08:21:16;;;;;;;32.10;21.10;;;6.10;99.90;;;;;;4935327;29;20233;-75
2021/03/10 08:23:42;;;;;;;31.77;22.73;;;6.30;99.90;;;;;;4919564;29;20570;-76
2021/03/10 08:26:09;;;;;;;27.67;19.45;;;6.30;99.90;;;;;;4915959;29;20193;-76
2021/03/10 08:28:37;;;;;;;28.85;20.08;;;6.30;99.90;;;;;;4935288;29;20220;-75
2021/03/10 08:31:08;;;;;;;34.03;19.48;;;6.50;99.90;;;;;;4935109;29;20230;-76
2021/03/10 08:33:52;;;;;;;31.17;18.00;;;6.50;99.90;;;;;;4935993;29;20275;-76
2021/03/10 08:36:31;;;;;;;24.65;18.98;;;6.50;99.90;;;;;;4917662;29;20300;-76
2021/03/10 08:38:58;;;;;;;26.65;18.92;;;6.50;99.90;;;;;;4936022;29;20208;-76
2021/03/10 08:41:26;;;;;;;28.88;20.00;;;6.50;99.90;;;;;;4933140;29;20690;-76
2021/03/10 08:44:09;;;;;;;28.45;17.85;;;6.60;99.90;;;;;;4926683;29;20761;-76
2021/03/10 08:46:40;;;;;;;29.15;19.00;;;6.70;99.90;;;;;;4947993;29;20303;-75
2021/03/10 08:49:37;;;;;;;25.60;18.10;;;6.80;99.90;;;;;;4934949;29;20543;-75
2021/03/10 08:52:16;;;;;;;23.52;17.75;;;6.80;99.90;;;;;;4916638;29;20591;-75
2021/03/10 08:54:59;;;;;;;24.77;17.85;;;6.90;99.90;;;;;;4902733;29;20299;-76
2021/03/10 08:57:31;;;;;;;24.20;16.75;;;7.00;99.90;;;;;;4916207;29;20588;-76
2021/03/10 09:00:01;;;;;;;22.85;16.58;;;7.00;99.90;;;;;;4934836;29;20212;-75
2021/03/10 09:02:37;;;;;;;19.70;13.65;;;6.90;99.90;;;;;;4900209;29;20738;-76
2021/03/10 09:05:06;;;;;;;18.00;13.70;;;6.90;99.90;;;;;;4928787;29;20243;-77
2021/03/10 09:07:34;;;;;;;25.13;15.07;;;7.00;99.90;;;;;;4901757;29;20309;-76
2021/03/10 09:10:14;;;;;;;19.65;12.32;;;7.10;99.90;;;;;;4934150;29;20628;-76
2021/03/10 09:12:44;;;;;;;19.88;14.20;;;7.10;99.90;;;;;;4916133;29;20744;-75
2021/03/10 09:15:15;;;;;;;16.77;12.52;;;7.10;99.90;;;;;;4917806;29;20717;-76
2021/03/10 09:17:44;;;;;;;12.85;11.32;;;7.10;99.90;;;;;;4922883;29;20218;-75
2021/03/10 09:20:28;;;;;;;16.88;11.88;;;7.20;99.90;;;;;;4919251;29;20638;-75
2021/03/10 09:23:01;;;;;;;17.27;10.57;;;7.40;99.90;;;;;;4932509;29;20291;-75
2021/03/10 09:25:45;;;;;;;15.73;9.98;;;7.40;99.90;;;;;;4918591;29;20216;-76
2021/03/10 09:28:18;;;;;;;15.68;9.90;;;7.50;99.90;;;;;;4916858;29;20260;-76
2021/03/10 09:30:58;;;;;;;14.15;9.23;;;7.60;99.90;;;;;;4917632;29;20188;-75
2021/03/10 09:33:33;;;;;;;12.38;9.75;;;7.60;99.90;;;;;;4914390;29;20265;-76
2021/03/10 09:36:04;;;;;;;12.07;10.18;;;7.60;99.90;;;;;;4915865;29;20659;-75
2021/03/10 09:38:36;;;;;;;15.15;10.50;;;7.70;99.90;;;;;;4916435;29;20211;-76
2021/03/10 09:41:10;;;;;;;13.93;9.27;;;7.80;99.90;;;;;;4912149;29;20197;-75
2021/03/10 09:43:39;;;;;;;12.25;9.35;;;7.80;99.90;;;;;;4921361;29;20642;-75
2021/03/10 09:46:11;;;;;;;13.63;8.40;;;7.80;99.90;;;;;;4917176;29;20615;-75
2021/03/10 09:48:41;;;;;;;12.40;8.25;;;8.00;99.90;;;;;;4915220;29;20812;-75
2021/03/10 09:51:16;;;;;;;11.02;8.80;;;8.00;99.90;;;;;;4940419;23;20252;-82
2021/03/10 09:53:50;;;;;;;14.07;9.32;;;8.10;99.90;;;;;;4898758;29;20801;-83
2021/03/10 09:56:24;;;;;;;13.88;10.35;;;8.10;99.90;;;;;;4897505;29;20232;-84
2021/03/10 09:59:00;;;;;;;16.50;11.30;;;8.20;99.90;;;;;;4897458;29;20209;-82
2021/03/10 10:01:45;;;;;;;14.30;10.63;;;8.40;99.90;;;;;;4927122;28;20296;-83
2021/03/10 10:04:14;;;;;;;16.90;11.55;;;8.50;99.90;;;;;;4917811;29;20581;-83
2021/03/10 10:06:52;;;;;;;13.98;10.48;;;8.70;99.90;;;;;;4887681;29;20228;-82
2021/03/10 10:09:24;;;;;;;12.75;9.73;;;;;;;;;;4931935;29;20197;-83
2021/03/10 10:11:51;;;;;;;14.90;11.63;;;8.70;99.90;;;;;;4896140;29;20308;-83
2021/03/10 10:14:20;;;;;;;12.07;9.98;;;8.80;99.90;;;;;;4880542;29;20206;-84
2021/03/10 10:16:46;;;;;;;11.68;9.65;;;8.80;99.90;;;;;;4908360;29;20221;-83
2021/03/10 10:19:18;;;;;;;11.38;9.50;;;8.90;99.90;;;;;;4895285;29;20687;-83
2021/03/10 10:21:48;;;;;;;17.08;11.38;;;9.00;99.90;;;;;;4900600;29;20225;-85
2021/03/10 10:24:15;;;;;;;13.73;10.50;;;9.10;99.90;;;;;;4901621;29;20234;-83
2021/03/10 10:26:42;;;;;;;13.20;9.48;;;9.20;99.90;;;;;;4902194;29;20277;-82
2021/03/10 10:29:14;;;;;;;14.25;11.27;;;9.30;98.40;;;;;;4903304;29;20293;-83
2021/03/10 10:31:47;;;;;;;15.73;12.20;;;9.20;99.90;;;;;;4899967;29;20230;-83
2021/03/10 10:34:15;;;;;;;16.15;12.85;;;9.30;99.90;;;;;;4916136;29;20225;-83
2021/03/10 10:36:45;;;;;;;17.38;12.18;;;9.50;99.20;;;;;;4895738;29;20225;-84
2021/03/10 10:39:23;;;;;;;19.20;12.38;;;9.70;96.70;;;;;;4920381;29;20237;-84
2021/03/10 10:41:51;;;;;;;13.52;11.50;;;9.60;97.30;;;;;;4933662;29;20591;-82
2021/03/10 10:44:20;;;;;;;15.18;11.45;;;9.50;97.60;;;;;;4900164;29;20208;-82
2021/03/10 10:46:46;;;;;;;16.60;10.85;;;9.50;97.40;;;;;;4916117;29;20222;-83
2021/03/10 10:49:13;;;;;;;15.30;11.88;;;9.60;96.90;;;;;;4933857;29;20225;-82
2021/03/10 10:51:42;;;;;;;14.15;9.82;;;9.60;96.20;;;;;;4917503;29;20285;-83
2021/03/10 10:54:26;;;;;;;16.35;9.90;;;9.70;94.50;;;;;;4920163;29;20225;-83
2021/03/10 10:56:54;;;;;;;11.07;7.47;;;9.80;93.50;;;;;;4891405;29;20229;-83
2021/03/10 10:59:40;;;;;;;10.05;7.80;;;9.90;92.20;;;;;;4915847;29;20238;-83
2021/03/10 11:02:12;;;;;;;8.88;7.10;;;9.90;93.00;;;;;;4901795;29;20205;-84
2021/03/10 11:04:44;;;;;;;10.23;6.57;;;9.80;91.00;;;;;;4901644;29;20268;-83
2021/03/10 11:07:15;;;;;;;7.57;5.60;;;9.90;91.10;;;;;;4899084;29;20566;-84
2021/03/10 11:09:42;;;;;;;6.60;5.53;;;10.00;91.10;;;;;;4918166;29;20509;-85
2021/03/10 11:12:13;;;;;;;6.17;4.30;;;10.10;90.10;;;;;;4915455;29;20481;-84
2021/03/10 11:14:47;;;;;;;5.00;4.10;;;10.10;88.60;;;;;;4900530;29;20594;-84
2021/03/10 11:17:25;;;;;;;8.77;6.18;;;10.20;87.20;;;;;;4930828;28;20473;-83
2021/03/10 11:19:55;;;;;;;8.00;6.00;;;10.20;88.90;;;;;;4933706;29;20225;-81
2021/03/10 11:22:22;;;;;;;5.22;4.30;;;10.30;87.70;;;;;;4932701;29;21098;-81
2021/03/10 11:24:50;;;;;;;7.85;5.03;;;10.30;86.80;;;;;;4903072;29;20220;-83
2021/03/10 11:27:21;;;;;;;5.43;4.60;;;10.40;82.70;;;;;;4917410;29;20229;-83
2021/03/10 11:29:49;;;;;;;6.27;5.10;;;10.40;85.70;;;;;;4885293;29;20492;-83
2021/03/10 11:32:17;;;;;;;10.50;6.63;;;10.30;87.50;;;;;;4932334;28;21031;-83
2021/03/10 11:34:45;;;;;;;7.50;6.70;;;10.40;87.80;;;;;;4901363;29;20986;-83
2021/03/10 11:37:14;;;;;;;6.53;5.90;;;10.60;86.20;;;;;;4892566;29;20483;-82
2021/03/10 11:39:43;;;;;;;7.07;5.80;;;10.60;85.70;;;;;;4901748;29;20470;-83
2021/03/10 11:42:11;;;;;;;8.57;6.37;;;10.80;81.80;;;;;;4898471;29;20488;-82
2021/03/10 11:44:37;;;;;;;7.17;5.63;;;10.80;84.20;;;;;;4918210;29;20456;-82
2021/03/10 11:47:04;;;;;;;10.50;6.30;;;10.80;83.70;;;;;;4918649;29;20468;-84
2021/03/10 11:49:30;;;;;;;9.50;6.80;;;10.80;81.20;;;;;;4919731;29;20827;-83
2021/03/10 11:51:57;;;;;;;8.30;6.20;;;10.80;81.60;;;;;;4932821;29;20461;-84
2021/03/10 11:54:24;;;;;;;10.30;7.07;;;10.80;82.30;;;;;;4901840;29;20450;-83
2021/03/10 11:56:51;;;;;;;6.90;5.90;;;10.80;82.40;;;;;;4900879;29;20871;-83
2021/03/10 11:59:18;;;;;;;10.47;6.90;;;10.90;78.40;;;;;;4901224;29;20461;-82
2021/03/10 12:01:55;;;;;;;9.10;6.70;;;10.90;77.90;;;;;;4900627;29;20479;-83
2021/03/10 12:04:27;;;;;;;8.20;6.50;;;10.90;78.80;;;;;;4902450;29;20553;-82
2021/03/10 12:06:56;;;;;;;8.20;6.77;;;10.80;79.90;;;;;;4898000;29;20472;-83
2021/03/10 12:09:23;;;;;;;9.53;7.83;;;10.70;78.80;;;;;;4900744;29;20442;-81
2021/03/10 12:11:49;;;;;;;10.40;7.70;;;10.80;89.40;;;;;;4911635;29;20568;-82
2021/03/10 12:14:23;;;;;;;20.63;7.97;;;10.80;85.60;;;;;;4917234;29;20445;-84
2021/03/10 12:16:50;;;;;;;7.90;7.03;;;10.60;88.70;;;;;;4931012;29;20466;-82
2021/03/10 12:19:17;;;;;;;10.63;7.77;;;10.60;84.90;;;;;;4915536;29;20473;-83
2021/03/10 12:21:43;;;;;;;10.73;7.90;;;10.60;86.70;;;;;;4930564;29;20811;-81
2021/03/10 12:24:10;;;;;;;11.47;7.80;;;10.40;85.70;;;;;;4916991;29;20485;-81
2021/03/10 12:26:37;;;;;;;11.77;9.37;;;10.40;89.50;;;;;;4915434;29;20838;-82
2021/03/10 12:29:05;;;;;;;9.03;7.27;;;10.40;83.80;;;;;;4899582;29;20460;-82
2021/03/10 12:31:31;;;;;;;10.40;8.57;;;10.50;87.00;;;;;;4915242;29;20468;-83
2021/03/10 12:33:58;;;;;;;11.27;8.50;;;10.50;83.90;;;;;;4894953;29;20983;-81
2021/03/10 12:36:24;;;;;;;13.40;9.10;;;10.40;86.30;;;;;;4897800;29;20470;-82
2021/03/10 12:38:51;;;;;;;11.10;8.00;;;10.30;88.00;;;;;;4897631;29;20806;-81
2021/03/10 12:41:17;;;;;;;9.07;8.17;;;10.40;86.60;;;;;;4896203;29;20446;-82
2021/03/10 12:43:44;;;;;;;9.63;8.53;;;10.40;85.80;;;;;;4896990;29;20435;-82
2021/03/10 12:46:10;;;;;;;13.13;8.70;;;10.60;88.00;;;;;;4880503;29;20427;-85
2021/03/10 12:48:37;;;;;;;10.20;8.50;;;10.60;84.00;;;;;;4897411;29;20450;-81
2021/03/10 12:51:05;;;;;;;13.80;8.90;;;10.60;86.80;;;;;;4910924;29;20461;-81
2021/03/10 12:53:32;;;;;;;12.37;10.10;;;10.70;90.00;;;;;;4916248;29;20430;-81
2021/03/10 12:55:59;;;;;;;11.17;10.00;;;10.60;86.60;;;;;;4899179;29;20922;-81
2021/03/10 12:58:25;;;;;;;12.47;10.70;;;10.70;85.60;;;;;;4930368;29;20458;-81